Hyderabad Weather



Hyderabad's Current Weather

Temprature 31.8o clear sky

clear sky

Rain: 0 %

Min Temprature31.8o
Max Temprature31.8o
Humidity42
Wind Speed4.5 m/h
Sun Rise05:38:05
Sun Set19:08:51
Current Time: 24-May-2022 08:14:02
Lat/Lon: 25.3924, 68.3737




Hyderabad's Geo Location



Hyderabad's Weather Forecast

Time Overall Temp Min Temp Max Temp Humidity Wind Speed Rain
24-May-2022 (Tue)
11:00:00 clear sky 34.180 34.180 38.930 32 2.48 m/h 0 %
14:00:00 clear sky 38.900 38.900 42.450 18 3.46 m/h 0 %
17:00:00 clear sky 43.220 43.220 43.220 8 3.57 m/h 0 %
20:00:00 clear sky 34.530 34.530 34.530 38 9.32 m/h 0 %
23:00:00 clear sky 29.940 29.940 29.940 67 9.01 m/h 0 %
25-May-2022 (Wed)
02:00:00 clear sky 28.720 28.720 28.720 73 8.67 m/h 0 %
05:00:00 clear sky 28.140 28.140 28.140 73 7.47 m/h 0 %
08:00:00 clear sky 30.470 30.470 30.470 61 8.55 m/h 0 %
11:00:00 clear sky 37.860 37.860 37.860 29 8.59 m/h 0 %
14:00:00 clear sky 41.210 41.210 41.210 21 8.69 m/h 0 %
17:00:00 clear sky 39.060 39.060 39.060 25 9.37 m/h 0 %
20:00:00 clear sky 32.490 32.490 32.490 50 8.98 m/h 0 %
23:00:00 clear sky 29.280 29.280 29.280 68 9.63 m/h 0 %
26-May-2022 (Thu)
02:00:00 clear sky 28.190 28.190 28.190 74 9.5 m/h 0 %
05:00:00 clear sky 27.540 27.540 27.540 78 9.43 m/h 0 %
08:00:00 clear sky 29.740 29.740 29.740 66 10.96 m/h 0 %
11:00:00 clear sky 37.030 37.030 37.030 33 10.62 m/h 0 %
14:00:00 clear sky 39.950 39.950 39.950 27 11.19 m/h 0 %
17:00:00 clear sky 36.950 36.950 36.950 36 11.68 m/h 0 %
20:00:00 clear sky 30.590 30.590 30.590 62 11.01 m/h 0 %
23:00:00 clear sky 28.820 28.820 28.820 73 11.32 m/h 0 %
27-May-2022 (Fri)
02:00:00 clear sky 28.470 28.470 28.470 73 10.96 m/h 0 %
05:00:00 clear sky 27.880 27.880 27.880 77 11.18 m/h 0 %
08:00:00 clear sky 30.160 30.160 30.160 67 11.95 m/h 0 %
11:00:00 clear sky 37.830 37.830 37.830 37 11.72 m/h 0 %
14:00:00 clear sky 40.720 40.720 40.720 29 10.97 m/h 0 %
17:00:00 clear sky 37.710 37.710 37.710 38 11.6 m/h 0 %
20:00:00 clear sky 31.090 31.090 31.090 60 10.95 m/h 0 %
23:00:00 clear sky 29.030 29.030 29.030 72 11.22 m/h 0 %
28-May-2022 (Sat)
02:00:00 broken clouds 28.310 28.310 28.310 78 10.27 m/h 0 %
05:00:00 scattered clouds 28.050 28.050 28.050 78 8.94 m/h 0 %
08:00:00 clear sky 30.920 30.920 30.920 64 8.79 m/h 0 %
11:00:00 clear sky 40.180 40.180 40.180 27 7.9 m/h 0 %
14:00:00 clear sky 45.500 45.500 45.500 14 8.57 m/h 0 %
17:00:00 clear sky 42.900 42.900 42.900 20 11.68 m/h 0 %
20:00:00 clear sky 32.920 32.920 32.920 46 10.01 m/h 0 %
23:00:00 clear sky 30.100 30.100 30.100 65 8.73 m/h 0 %
29-May-2022 (Sun)
02:00:00 clear sky 28.850 28.850 28.850 73 7.82 m/h 0 %
05:00:00 clear sky 28.880 28.880 28.880 68 6.76 m/h 0 %
08:00:00 clear sky 34.130 34.130 34.130 38 7.79 m/h 0 %

Famous Cities (61)